createdAt,value
2018-06-17T00:01:37.067Z,17.20
2018-06-17T00:04:04.008Z,17.13
2018-06-17T00:06:30.944Z,19.10
2018-06-17T00:08:58.137Z,19.27
2018-06-17T00:11:25.100Z,18.30
2018-06-17T00:13:52.043Z,19.00
2018-06-17T00:16:18.970Z,17.73
2018-06-17T00:18:46.018Z,17.43
2018-06-17T00:21:12.967Z,19.00
2018-06-17T00:23:39.942Z,18.70
2018-06-17T00:26:07.333Z,19.03
2018-06-17T00:28:34.380Z,19.67
2018-06-17T00:31:01.374Z,19.10
2018-06-17T00:33:28.349Z,19.07
2018-06-17T00:35:55.334Z,17.97
2018-06-17T00:38:22.272Z,19.00
2018-06-17T00:40:49.304Z,18.73
2018-06-17T00:43:16.405Z,18.20
2018-06-17T00:45:43.386Z,18.57
2018-06-17T00:48:10.648Z,18.60
2018-06-17T00:50:37.757Z,18.30
2018-06-17T00:53:04.751Z,18.67
2018-06-17T00:55:31.704Z,18.40
2018-06-17T00:57:58.636Z,19.27
2018-06-17T01:00:25.578Z,18.63
2018-06-17T01:02:52.520Z,17.90
2018-06-17T01:05:19.601Z,18.90
2018-06-17T01:07:46.554Z,18.90
2018-06-17T01:10:13.527Z,18.50
2018-06-17T01:12:40.643Z,18.70
2018-06-17T01:15:08.721Z,19.23
2018-06-17T01:17:36.172Z,19.50
2018-06-17T01:20:04.404Z,17.50
2018-06-17T01:22:31.437Z,18.70
2018-06-17T01:24:58.416Z,19.13
2018-06-17T01:27:25.327Z,18.57
2018-06-17T01:29:52.275Z,19.67
2018-06-17T01:32:19.226Z,18.97
2018-06-17T01:34:46.180Z,19.90
2018-06-17T01:37:13.092Z,19.40
2018-06-17T01:39:40.019Z,18.90
2018-06-17T01:42:06.943Z,19.80
2018-06-17T01:44:34.295Z,19.17
2018-06-17T01:47:01.459Z,19.60
2018-06-17T01:49:28.389Z,18.80
2018-06-17T01:51:55.321Z,19.63
2018-06-17T01:54:22.274Z,19.40
2018-06-17T01:56:49.209Z,19.00
2018-06-17T01:59:16.161Z,18.90
2018-06-17T02:01:43.251Z,18.53
2018-06-17T02:04:16.028Z,19.40
2018-06-17T02:06:48.754Z,19.37
2018-06-17T02:09:21.585Z,19.80
2018-06-17T02:11:54.486Z,19.50
2018-06-17T02:14:27.183Z,20.27
2018-06-17T02:17:05.336Z,19.80
2018-06-17T02:19:32.298Z,20.93
2018-06-17T02:21:59.375Z,19.20
2018-06-17T02:24:26.349Z,19.23
2018-06-17T02:26:53.414Z,19.90
2018-06-17T02:29:20.324Z,19.97
2018-06-17T02:31:47.290Z,20.00
2018-06-17T02:34:14.235Z,20.17
2018-06-17T02:36:41.195Z,20.30
2018-06-17T02:39:08.874Z,21.27
2018-06-17T02:41:36.517Z,20.70
2018-06-17T02:44:03.437Z,20.50
2018-06-17T02:46:36.318Z,19.90
2018-06-17T02:49:09.076Z,21.03
2018-06-17T02:51:41.891Z,20.43
2018-06-17T02:54:14.749Z,21.40
2018-06-17T02:56:41.697Z,21.17
2018-06-17T02:59:08.778Z,20.93
2018-06-17T03:01:35.717Z,20.67
2018-06-17T03:04:02.718Z,20.73
2018-06-17T03:06:29.636Z,20.80
2018-06-17T03:08:56.642Z,21.50
2018-06-17T03:11:23.592Z,20.70
2018-06-17T03:13:50.748Z,21.73
2018-06-17T03:16:17.722Z,21.77
2018-06-17T03:18:44.656Z,21.27
2018-06-17T03:21:11.591Z,21.30
2018-06-17T03:23:38.511Z,23.13
2018-06-17T03:26:11.181Z,21.60
2018-06-17T03:28:43.945Z,21.00
2018-06-17T03:31:17.624Z,22.40
2018-06-17T03:33:45.693Z,20.80
2018-06-17T03:36:12.820Z,22.30
2018-06-17T03:38:41.113Z,20.80
2018-06-17T03:41:08.443Z,22.57
2018-06-17T03:43:35.515Z,21.97
2018-06-17T03:46:02.706Z,21.73
2018-06-17T03:48:29.665Z,21.70
2018-06-17T03:50:56.840Z,21.90
2018-06-17T03:53:23.832Z,22.70
2018-06-17T03:55:50.839Z,22.40
2018-06-17T03:58:17.750Z,22.27
2018-06-17T04:00:44.837Z,23.10
2018-06-17T04:03:11.771Z,21.77
2018-06-17T04:05:38.679Z,22.23
2018-06-17T04:08:05.634Z,21.93
2018-06-17T04:10:32.624Z,22.83
2018-06-17T04:12:59.581Z,22.50
2018-06-17T04:15:26.537Z,21.40
2018-06-17T04:17:53.576Z,22.87
2018-06-17T04:20:20.530Z,22.37
2018-06-17T04:22:47.518Z,22.00
2018-06-17T04:25:14.488Z,21.90
2018-06-17T04:27:41.417Z,22.63
2018-06-17T04:30:08.373Z,21.00
2018-06-17T04:32:35.307Z,22.10
2018-06-17T04:35:02.225Z,21.30
2018-06-17T04:37:29.259Z,21.20
2018-06-17T04:39:56.438Z,21.80
2018-06-17T04:42:23.356Z,21.10
2018-06-17T04:44:50.281Z,20.37
2018-06-17T04:47:17.206Z,20.90
2018-06-17T04:49:44.137Z,22.77
2018-06-17T04:52:11.083Z,21.23
2018-06-17T04:54:38.007Z,21.57
2018-06-17T04:57:04.975Z,21.77
2018-06-17T04:59:31.931Z,21.87
2018-06-17T05:01:59.032Z,22.57
2018-06-17T05:04:25.966Z,20.80
2018-06-17T05:06:52.908Z,20.53
2018-06-17T05:09:19.888Z,20.93
2018-06-17T05:11:46.821Z,20.80
2018-06-17T05:14:13.751Z,20.30
2018-06-17T05:16:40.960Z,22.60
2018-06-17T05:19:07.874Z,21.27
2018-06-17T05:21:34.976Z,21.67
2018-06-17T05:24:01.998Z,21.70
2018-06-17T05:26:28.930Z,22.97
2018-06-17T05:28:55.869Z,23.10
2018-06-17T05:31:22.822Z,22.23
2018-06-17T05:33:49.856Z,23.43
2018-06-17T05:36:16.814Z,20.50
2018-06-17T05:38:43.728Z,21.13
2018-06-17T05:41:10.774Z,24.10
2018-06-17T05:43:37.722Z,20.13
2018-06-17T05:46:04.659Z,19.77
2018-06-17T05:48:31.591Z,20.30
2018-06-17T05:50:58.542Z,20.80
2018-06-17T05:53:25.548Z,21.17
2018-06-17T05:55:52.487Z,19.20
2018-06-17T05:58:19.449Z,24.50
2018-06-17T06:00:46.417Z,19.40
2018-06-17T06:03:13.967Z,21.63
2018-06-17T06:05:40.982Z,20.50
2018-06-17T06:08:07.991Z,18.50
2018-06-17T06:10:34.913Z,19.67
2018-06-17T06:13:01.929Z,16.57
2018-06-17T06:15:28.863Z,17.50
2018-06-17T06:17:55.789Z,16.47
2018-06-17T06:20:23.395Z,21.50
2018-06-17T06:22:50.483Z,16.07
2018-06-17T06:25:17.423Z,14.60
2018-06-17T06:27:44.367Z,14.70
2018-06-17T06:30:11.299Z,14.40
2018-06-17T06:32:38.237Z,12.20
2018-06-17T06:35:05.226Z,11.90
2018-06-17T06:37:32.185Z,12.60
2018-06-17T06:39:59.277Z,11.37
2018-06-17T06:42:26.263Z,12.27
2018-06-17T06:44:53.205Z,12.57
2018-06-17T06:47:20.161Z,11.93
2018-06-17T06:49:47.116Z,11.70
2018-06-17T06:52:14.209Z,11.20
2018-06-17T06:54:41.139Z,10.13
2018-06-17T06:57:08.185Z,10.80
2018-06-17T06:59:35.137Z,11.70
2018-06-17T07:02:13.826Z,13.30
2018-06-17T07:04:53.025Z,10.07
2018-06-17T07:07:31.898Z,11.53
2018-06-17T07:10:10.625Z,9.70
2018-06-17T07:12:37.769Z,9.77
2018-06-17T07:15:05.307Z,11.90
2018-06-17T07:17:44.115Z,10.40
2018-06-17T07:20:11.073Z,10.17
2018-06-17T07:22:38.025Z,10.30
2018-06-17T07:25:05.264Z,9.80
2018-06-17T07:27:43.947Z,9.07
2018-06-17T07:30:10.957Z,9.20
2018-06-17T07:32:37.915Z,10.77
2018-06-17T07:35:04.845Z,10.10
2018-06-17T07:37:31.794Z,8.97
2018-06-17T07:40:16.662Z,8.90
2018-06-17T07:42:44.009Z,8.90
2018-06-17T07:45:11.119Z,9.03
2018-06-17T07:47:38.053Z,8.73
2018-06-17T07:50:16.815Z,12.30
2018-06-17T07:52:55.447Z,9.70
2018-06-17T07:55:22.457Z,8.67
2018-06-17T07:57:49.409Z,8.00
2018-06-17T08:00:16.346Z,7.70
2018-06-17T08:02:43.336Z,8.67
2018-06-17T08:05:10.255Z,9.40
2018-06-17T08:07:37.291Z,8.80
2018-06-17T08:10:04.493Z,8.93
2018-06-17T08:12:31.425Z,8.33
2018-06-17T08:14:58.351Z,15.20
2018-06-17T08:17:25.383Z,8.70
2018-06-17T08:19:52.410Z,10.30
2018-06-17T08:22:19.484Z,7.90
2018-06-17T08:24:46.531Z,10.00
2018-06-17T08:27:13.581Z,8.80
2018-06-17T08:29:40.508Z,8.40
2018-06-17T08:32:07.455Z,8.10
2018-06-17T08:34:34.394Z,8.53
2018-06-17T08:37:01.333Z,7.17
2018-06-17T08:39:28.305Z,7.10
2018-06-17T08:41:55.301Z,7.80
2018-06-17T08:44:22.395Z,8.40
2018-06-17T08:46:49.799Z,8.20
2018-06-17T08:49:17.222Z,7.20
2018-06-17T08:51:44.260Z,7.40
2018-06-17T08:54:11.296Z,8.77
2018-06-17T08:56:38.390Z,8.50
2018-06-17T08:59:05.314Z,7.27
2018-06-17T09:01:32.359Z,7.20
2018-06-17T09:03:59.496Z,6.37
2018-06-17T09:06:26.561Z,6.77
2018-06-17T09:08:53.984Z,6.40
2018-06-17T09:11:21.556Z,7.20
2018-06-17T09:13:48.632Z,6.37
2018-06-17T09:16:15.713Z,6.73
2018-06-17T09:18:42.792Z,6.37
2018-06-17T09:21:09.820Z,6.57
2018-06-17T09:23:36.872Z,7.57
2018-06-17T09:26:03.943Z,6.17
2018-06-17T09:28:31.047Z,6.67
2018-06-17T09:30:58.176Z,6.50
2018-06-17T09:33:25.224Z,7.00
2018-06-17T09:35:52.295Z,7.33
2018-06-17T09:38:19.403Z,5.83
2018-06-17T09:40:46.625Z,5.10
2018-06-17T09:43:13.688Z,5.10
2018-06-17T09:45:40.785Z,4.83
2018-06-17T09:48:07.825Z,5.33
2018-06-17T09:50:35.057Z,5.83
2018-06-17T09:53:02.129Z,4.90
2018-06-17T09:55:29.197Z,4.60
2018-06-17T09:57:56.332Z,4.97
2018-06-17T10:00:23.834Z,4.57
2018-06-17T10:02:52.839Z,6.10
2018-06-17T10:05:20.140Z,5.23
2018-06-17T10:07:47.541Z,5.37
2018-06-17T10:10:50.025Z,4.80
2018-06-17T10:13:18.054Z,4.63
2018-06-17T10:15:45.765Z,5.30
2018-06-17T10:18:13.397Z,4.80
2018-06-17T10:20:40.568Z,5.03
2018-06-17T10:23:07.941Z,6.43
2018-06-17T10:25:35.140Z,8.53
2018-06-17T10:28:02.903Z,8.17
2018-06-17T10:30:29.932Z,6.73
2018-06-17T10:32:57.834Z,5.17
2018-06-17T10:35:24.897Z,16.90
2018-06-17T10:37:51.937Z,16.63
2018-06-17T10:40:19.365Z,21.30
2018-06-17T10:42:47.790Z,19.20
2018-06-17T10:45:15.530Z,8.43
2018-06-17T10:47:43.705Z,10.33
2018-06-17T10:50:11.516Z,7.43
2018-06-17T10:52:40.666Z,11.93
2018-06-17T10:55:09.934Z,7.93
2018-06-17T10:57:37.255Z,4.57
2018-06-17T11:00:04.538Z,10.40
2018-06-17T11:02:31.640Z,7.20
2018-06-17T11:04:59.075Z,10.23
2018-06-17T11:07:26.127Z,5.20
2018-06-17T11:09:53.196Z,9.40
2018-06-17T11:12:20.585Z,11.07
2018-06-17T11:14:47.862Z,7.50
2018-06-17T11:17:14.932Z,7.40
2018-06-17T11:19:42.719Z,7.47
2018-06-17T11:22:09.742Z,5.87
2018-06-17T11:24:37.007Z,7.87
2018-06-17T11:27:04.185Z,9.70
2018-06-17T11:29:31.399Z,6.80
2018-06-17T11:31:58.470Z,6.00
2018-06-17T11:34:25.521Z,9.30
2018-06-17T11:36:52.561Z,5.83
2018-06-17T11:39:19.595Z,5.27
2018-06-17T11:41:46.688Z,6.27
2018-06-17T11:44:13.848Z,5.60
2018-06-17T11:46:40.932Z,4.77
2018-06-17T11:49:07.996Z,6.83
2018-06-17T11:51:35.019Z,4.97
2018-06-17T11:54:02.332Z,5.53
2018-06-17T11:56:29.536Z,4.17
2018-06-17T11:58:56.725Z,4.63
2018-06-17T12:01:23.755Z,6.00
2018-06-17T12:03:50.852Z,4.63
2018-06-17T12:06:17.907Z,6.43
2018-06-17T12:08:45.182Z,5.30
2018-06-17T12:11:12.267Z,5.83
2018-06-17T12:13:39.352Z,5.60
2018-06-17T12:16:06.423Z,5.00
2018-06-17T12:18:33.761Z,5.63
2018-06-17T12:21:00.818Z,4.80
2018-06-17T12:23:27.885Z,5.40
2018-06-17T12:25:55.094Z,5.20
2018-06-17T12:28:22.296Z,4.83
2018-06-17T12:30:49.492Z,6.83
2018-06-17T12:33:16.892Z,5.13
2018-06-17T12:35:43.922Z,5.23
2018-06-17T12:38:10.968Z,5.40
2018-06-17T12:40:38.373Z,5.60
2018-06-17T12:43:05.437Z,5.90
2018-06-17T12:45:32.533Z,6.10
2018-06-17T12:47:59.612Z,5.63
2018-06-17T12:50:26.855Z,5.07
2018-06-17T12:52:54.208Z,5.60
2018-06-17T12:55:21.733Z,6.23
2018-06-17T12:57:48.836Z,6.67
2018-06-17T13:00:15.939Z,6.47
2018-06-17T13:02:42.979Z,7.00
2018-06-17T13:05:10.032Z,6.67
2018-06-17T13:07:37.942Z,6.27
2018-06-17T13:10:05.213Z,5.60
2018-06-17T13:12:32.460Z,5.50
2018-06-17T13:14:59.650Z,5.40
2018-06-17T13:17:26.824Z,5.67
2018-06-17T13:19:53.899Z,5.70
2018-06-17T13:22:21.066Z,6.03
2018-06-17T13:24:48.297Z,6.93
2018-06-17T13:27:15.379Z,6.20
2018-06-17T13:29:43.190Z,5.93
2018-06-17T13:32:10.280Z,5.80
2018-06-17T13:34:37.531Z,5.83
2018-06-17T13:37:04.684Z,4.93
2018-06-17T13:39:31.787Z,5.70
2018-06-17T13:41:59.751Z,5.10
2018-06-17T13:44:26.857Z,5.70
2018-06-17T13:46:54.021Z,6.40
2018-06-17T13:49:21.083Z,6.80
2018-06-17T13:51:48.562Z,7.50
2018-06-17T13:54:15.665Z,7.60
2018-06-17T13:56:42.964Z,7.30
2018-06-17T13:59:10.084Z,7.63
2018-06-17T14:01:37.186Z,9.97
2018-06-17T14:04:04.230Z,6.77
2018-06-17T14:06:31.316Z,9.30
2018-06-17T14:08:58.391Z,7.27
2018-06-17T14:11:25.425Z,7.30
2018-06-17T14:13:52.471Z,9.07
2018-06-17T14:16:19.517Z,6.40
2018-06-17T14:18:46.707Z,6.40
2018-06-17T14:21:14.457Z,7.37
2018-06-17T14:23:41.581Z,9.10
2018-06-17T14:26:08.636Z,8.23
2018-06-17T14:28:35.758Z,7.23
2018-06-17T14:31:02.840Z,5.70
2018-06-17T14:33:30.104Z,7.30
2018-06-17T14:35:57.200Z,6.70
2018-06-17T14:38:24.546Z,7.97
2018-06-17T14:40:57.476Z,6.93
2018-06-17T14:43:30.263Z,7.20
2018-06-17T14:46:03.333Z,5.60
2018-06-17T14:48:36.176Z,8.87
2018-06-17T14:51:09.089Z,6.10
2018-06-17T14:53:36.249Z,5.03
2018-06-17T14:56:03.846Z,5.20
2018-06-17T14:58:30.948Z,5.10
2018-06-17T15:00:58.053Z,4.27
2018-06-17T15:03:25.104Z,4.60
2018-06-17T15:05:52.378Z,4.77
2018-06-17T15:08:19.454Z,4.50
2018-06-17T15:10:46.377Z,4.73
2018-06-17T15:13:13.689Z,4.73
2018-06-17T15:15:40.634Z,4.50
2018-06-17T15:18:08.636Z,4.63
2018-06-17T15:20:35.619Z,4.20
2018-06-17T15:23:02.920Z,5.13
2018-06-17T15:25:30.453Z,4.70
2018-06-17T15:27:57.746Z,4.40
2018-06-17T15:30:24.699Z,4.13
2018-06-17T15:32:57.716Z,3.30
2018-06-17T15:35:30.901Z,3.10
2018-06-17T15:38:03.809Z,2.90
2018-06-17T15:40:36.771Z,4.00
2018-06-17T15:43:03.822Z,2.70
2018-06-17T15:45:30.858Z,3.00
2018-06-17T15:47:57.985Z,2.77
2018-06-17T15:50:25.343Z,3.40
2018-06-17T15:52:52.379Z,3.17
2018-06-17T15:55:19.447Z,3.00
2018-06-17T15:57:46.388Z,2.50
2018-06-17T16:00:13.470Z,3.10
2018-06-17T16:02:40.591Z,2.83
2018-06-17T16:05:07.820Z,2.77
2018-06-17T16:07:35.079Z,2.90
2018-06-17T16:10:02.409Z,2.90
2018-06-17T16:12:35.412Z,2.30
2018-06-17T16:16:11.313Z,2.03
2018-06-17T16:18:44.210Z,2.63
2018-06-17T16:21:11.194Z,2.50
2018-06-17T16:23:38.814Z,2.70
2018-06-17T16:26:06.046Z,1.93
2018-06-17T16:28:33.096Z,2.63
2018-06-17T16:31:00.068Z,2.40
2018-06-17T16:33:27.070Z,4.40
2018-06-17T16:35:55.097Z,3.30
2018-06-17T16:38:22.985Z,2.80
2018-06-17T16:40:50.227Z,3.40
2018-06-17T16:43:17.237Z,2.10
2018-06-17T16:45:44.788Z,2.10
2018-06-17T16:48:11.941Z,1.73
2018-06-17T16:50:38.914Z,2.30
2018-06-17T16:53:11.912Z,2.50
2018-06-17T16:55:44.831Z,1.97
2018-06-17T16:58:17.709Z,2.50
2018-06-17T17:00:45.051Z,2.20
2018-06-17T17:03:12.224Z,2.83
2018-06-17T17:05:39.224Z,2.40
2018-06-17T17:08:06.186Z,3.30
2018-06-17T17:10:33.223Z,2.40
2018-06-17T17:13:00.387Z,2.73
2018-06-17T17:15:27.346Z,2.80
2018-06-17T17:17:54.310Z,2.50
2018-06-17T17:20:21.415Z,2.80
2018-06-17T17:22:48.435Z,3.40
2018-06-17T17:25:15.412Z,3.33
2018-06-17T17:27:42.352Z,4.83
2018-06-17T17:30:09.477Z,3.70
2018-06-17T17:32:42.624Z,3.80
2018-06-17T17:35:15.461Z,3.20
2018-06-17T17:37:48.360Z,6.37
2018-06-17T17:40:21.192Z,4.80
2018-06-17T17:42:48.230Z,3.77
2018-06-17T17:45:20.368Z,3.43
2018-06-17T17:47:47.405Z,3.67
2018-06-17T17:50:14.299Z,4.10
2018-06-17T17:52:41.466Z,5.50
2018-06-17T17:55:08.645Z,4.50
2018-06-17T17:57:35.706Z,3.53
2018-06-17T18:00:02.725Z,3.53
2018-06-17T18:02:29.901Z,3.97
2018-06-17T18:04:57.184Z,5.47
2018-06-17T18:07:24.190Z,3.93
2018-06-17T18:09:51.130Z,5.07
2018-06-17T18:12:18.102Z,3.60
2018-06-17T18:14:45.243Z,4.10
2018-06-17T18:17:12.260Z,3.83
2018-06-17T18:19:39.525Z,4.00
2018-06-17T18:22:06.692Z,3.97
2018-06-17T18:24:33.739Z,3.33
2018-06-17T18:27:06.668Z,3.10
2018-06-17T18:29:39.542Z,3.53
2018-06-17T18:32:12.322Z,3.30
2018-06-17T18:34:45.711Z,3.90
2018-06-17T18:37:12.726Z,3.60
2018-06-17T18:39:39.850Z,3.80
2018-06-17T18:42:06.967Z,3.50
2018-06-17T18:44:34.113Z,3.77
2018-06-17T18:47:01.144Z,3.67
2018-06-17T18:49:28.117Z,3.37
2018-06-17T18:51:55.255Z,3.20
2018-06-17T18:54:22.269Z,3.30
2018-06-17T18:56:50.452Z,3.47
2018-06-17T18:59:17.774Z,3.67
2018-06-17T19:01:44.756Z,3.20
2018-06-17T19:04:11.756Z,3.03
2018-06-17T19:06:38.851Z,3.50
2018-06-17T19:09:12.852Z,3.43
2018-06-17T19:11:46.060Z,3.60
2018-06-17T19:15:21.589Z,3.67
2018-06-17T19:17:54.417Z,3.70
2018-06-17T19:20:22.218Z,3.80
2018-06-17T19:22:49.189Z,3.33
2018-06-17T19:25:16.282Z,4.40
2018-06-17T19:27:43.479Z,3.40
2018-06-17T19:30:10.640Z,3.67
2018-06-17T19:32:37.589Z,4.50
2018-06-17T19:35:04.821Z,3.93
2018-06-17T19:37:31.784Z,3.97
2018-06-17T19:39:59.515Z,5.50
2018-06-17T19:42:26.473Z,3.63
2018-06-17T19:44:53.688Z,5.90
2018-06-17T19:47:20.846Z,5.47
2018-06-17T19:49:53.740Z,4.00
2018-06-17T19:52:26.476Z,4.77
2018-06-17T19:54:59.431Z,3.80
2018-06-17T19:57:32.065Z,3.77
2018-06-17T20:00:04.919Z,3.20
2018-06-17T20:02:32.133Z,3.37
2018-06-17T20:04:59.078Z,4.40
2018-06-17T20:07:26.305Z,4.50
2018-06-17T20:09:53.386Z,4.40
2018-06-17T20:12:20.602Z,4.60
2018-06-17T20:14:47.659Z,4.20
2018-06-17T20:17:14.603Z,3.90
2018-06-17T20:19:41.667Z,3.90
2018-06-17T20:22:08.638Z,4.27
2018-06-17T20:24:36.081Z,4.00
2018-06-17T20:27:03.137Z,4.37
2018-06-17T20:29:30.087Z,5.87
2018-06-17T20:32:03.123Z,3.97
2018-06-17T20:34:36.140Z,4.77
2018-06-17T20:37:08.869Z,3.80
2018-06-17T20:39:41.646Z,4.20
2018-06-17T20:42:14.473Z,4.03
2018-06-17T20:44:41.418Z,4.63
2018-06-17T20:47:08.409Z,4.40
2018-06-17T20:49:35.666Z,8.67
2018-06-17T20:52:02.964Z,5.57
2018-06-17T20:54:29.888Z,6.27
2018-06-17T20:56:56.867Z,21.87
2018-06-17T20:59:23.952Z,22.90
2018-06-17T21:01:50.896Z,25.00
2018-06-17T21:04:17.866Z,19.50
2018-06-17T21:06:44.857Z,16.87
2018-06-17T21:09:11.969Z,10.07
2018-06-17T21:11:39.193Z,9.83
2018-06-17T21:14:06.451Z,7.60
2018-06-17T21:16:33.429Z,7.40
2018-06-17T21:19:06.516Z,5.97
2018-06-17T21:21:39.337Z,6.00
2018-06-17T21:24:12.247Z,4.87
2018-06-17T21:26:45.227Z,4.70
2018-06-17T21:29:12.172Z,6.03
2018-06-17T21:31:39.289Z,7.63
2018-06-17T21:34:06.757Z,8.13
2018-06-17T21:36:33.685Z,5.73
2018-06-17T21:39:00.643Z,15.97
2018-06-17T21:41:28.170Z,12.77
2018-06-17T21:43:55.201Z,12.43
2018-06-17T21:46:22.129Z,12.53
2018-06-17T21:48:49.119Z,24.13
2018-06-17T21:51:16.083Z,14.93
2018-06-17T21:53:43.040Z,11.33
2018-06-17T21:56:10.355Z,30.43
2018-06-17T21:58:43.334Z,22.53
2018-06-17T22:01:10.522Z,13.60
2018-06-17T22:03:37.453Z,15.37
2018-06-17T22:06:04.381Z,14.03
2018-06-17T22:08:37.253Z,20.70
2018-06-17T22:11:10.084Z,11.70
2018-06-17T22:13:42.805Z,7.13
2018-06-17T22:16:15.649Z,16.40
2018-06-17T22:18:42.846Z,17.27
2018-06-17T22:21:09.785Z,9.90
2018-06-17T22:23:37.007Z,14.93
2018-06-17T22:26:04.135Z,13.33
2018-06-17T22:28:31.061Z,9.43
2018-06-17T22:30:57.984Z,11.50
2018-06-17T22:33:24.940Z,9.90
2018-06-17T22:35:51.903Z,18.20
2018-06-17T22:38:18.822Z,9.90
2018-06-17T22:40:45.901Z,20.00
2018-06-17T22:43:13.105Z,8.97
2018-06-17T22:45:40.035Z,14.17
2018-06-17T22:48:07.023Z,7.90
2018-06-17T22:50:33.978Z,10.83
2018-06-17T22:53:12.900Z,8.10
2018-06-17T22:55:39.819Z,11.57
2018-06-17T22:58:12.826Z,8.33
2018-06-17T23:00:45.540Z,11.07
2018-06-17T23:03:18.377Z,6.83
2018-06-17T23:05:51.034Z,17.63
2018-06-17T23:08:24.045Z,11.83
2018-06-17T23:10:51.072Z,21.93
2018-06-17T23:13:18.002Z,25.23
2018-06-17T23:15:45.808Z,13.07
2018-06-17T23:18:12.787Z,29.60
2018-06-17T23:20:39.731Z,40.77
2018-06-17T23:23:06.813Z,10.30
2018-06-17T23:25:33.742Z,12.23
2018-06-17T23:28:00.661Z,16.10
2018-06-17T23:30:27.907Z,7.10
2018-06-17T23:32:55.105Z,5.90
2018-06-17T23:35:22.069Z,6.20
2018-06-17T23:37:49.028Z,5.60
2018-06-17T23:40:16.115Z,6.80
2018-06-17T23:42:43.044Z,6.70
2018-06-17T23:45:09.992Z,7.13
2018-06-17T23:47:42.836Z,6.83
2018-06-17T23:50:15.706Z,6.90
2018-06-17T23:52:48.520Z,9.17
2018-06-17T23:55:21.333Z,8.20
2018-06-17T23:57:48.245Z,5.93
